createdAt,value
2022-11-20T00:03:26.094Z,78.95
2022-11-20T00:08:28.727Z,78.94
2022-11-20T00:13:31.556Z,78.61
2022-11-20T00:18:35.476Z,78.94
2022-11-20T00:23:38.130Z,78.79
2022-11-20T00:28:41.038Z,78.64
2022-11-20T00:33:44.827Z,77.96
2022-11-20T00:38:48.102Z,78.37
2022-11-20T00:43:51.071Z,78.38
2022-11-20T00:48:53.690Z,78.56
2022-11-20T00:53:57.886Z,78.72
2022-11-20T00:59:02.434Z,78.42
2022-11-20T01:04:05.084Z,78.13
2022-11-20T01:09:16.789Z,78.50
2022-11-20T01:14:21.007Z,78.54
2022-11-20T01:19:25.089Z,78.63
2022-11-20T01:24:28.108Z,78.23
2022-11-20T01:29:30.901Z,78.28
2022-11-20T01:34:33.746Z,78.47
2022-11-20T01:39:36.441Z,78.76
2022-11-20T01:44:55.782Z,78.52
2022-11-20T01:50:06.318Z,78.72
2022-11-20T01:55:13.973Z,78.90
2022-11-20T02:00:19.435Z,79.09
2022-11-20T02:05:30.362Z,79.17
2022-11-20T02:10:33.367Z,79.42
2022-11-20T02:15:36.163Z,79.19
2022-11-20T02:20:38.935Z,79.39
2022-11-20T02:25:42.760Z,78.73
2022-11-20T02:30:45.443Z,78.50
2022-11-20T02:35:48.745Z,78.63
2022-11-20T02:40:55.341Z,78.72
2022-11-20T02:45:58.402Z,78.25
2022-11-20T02:51:01.211Z,78.03
2022-11-20T02:56:03.663Z,78.10
2022-11-20T03:01:06.399Z,77.99
2022-11-20T03:06:09.244Z,77.42
2022-11-20T03:11:11.915Z,77.49
2022-11-20T03:16:19.363Z,77.35
2022-11-20T03:21:21.991Z,77.05
2022-11-20T03:26:26.431Z,76.15
2022-11-20T03:31:41.728Z,75.63
2022-11-20T03:36:44.839Z,76.41
2022-11-20T03:41:47.547Z,76.44
2022-11-20T03:46:50.320Z,76.22
2022-11-20T03:51:53.041Z,75.56
2022-11-20T03:56:55.767Z,75.21
2022-11-20T04:01:58.613Z,75.34
2022-11-20T04:07:01.128Z,74.56
2022-11-20T04:12:04.014Z,74.32
2022-11-20T04:17:06.988Z,74.87
2022-11-20T04:22:09.875Z,74.50
2022-11-20T04:27:12.433Z,73.90
2022-11-20T04:32:14.982Z,73.87
2022-11-20T04:37:17.547Z,73.93
2022-11-20T04:42:32.184Z,73.02
2022-11-20T04:47:34.932Z,72.91
2022-11-20T04:52:37.655Z,73.14
2022-11-20T04:57:40.386Z,72.71
2022-11-20T05:02:43.183Z,72.13
2022-11-20T05:07:45.789Z,72.38
2022-11-20T05:12:48.446Z,72.58
2022-11-20T05:17:52.951Z,72.41
2022-11-20T05:22:58.731Z,72.65
2022-11-20T05:28:01.961Z,73.08
2022-11-20T05:33:04.812Z,72.65
2022-11-20T05:38:07.653Z,72.56
2022-11-20T05:43:10.354Z,71.96
2022-11-20T05:48:12.974Z,71.54
2022-11-20T05:53:15.613Z,71.01
2022-11-20T05:58:18.453Z,71.43
2022-11-20T06:03:21.422Z,72.11
2022-11-20T06:08:23.834Z,72.12
2022-11-20T06:13:26.619Z,72.04
2022-11-20T06:18:30.295Z,72.15
2022-11-20T06:23:34.476Z,72.35
2022-11-20T06:28:37.498Z,72.06
2022-11-20T06:33:40.408Z,71.79
2022-11-20T06:38:43.724Z,71.36
2022-11-20T06:43:46.250Z,71.51
2022-11-20T06:48:49.750Z,71.26
2022-11-20T06:53:52.468Z,71.17
2022-11-20T06:58:55.115Z,71.35
2022-11-20T07:03:57.837Z,70.83
2022-11-20T07:09:00.425Z,71.70
2022-11-20T07:14:03.207Z,70.91
2022-11-20T07:19:05.952Z,70.89
2022-11-20T07:24:08.685Z,70.85
2022-11-20T07:29:11.373Z,70.87
2022-11-20T07:34:14.038Z,69.94
2022-11-20T07:39:16.653Z,69.23
2022-11-20T07:44:19.505Z,68.51
2022-11-20T07:49:22.510Z,68.08
2022-11-20T07:54:25.247Z,67.95
2022-11-20T07:59:28.036Z,67.57
2022-11-20T08:04:30.822Z,67.95
2022-11-20T08:09:34.068Z,68.23
2022-11-20T08:14:36.846Z,68.44
2022-11-20T08:19:39.574Z,67.83
2022-11-20T08:24:42.280Z,67.04
2022-11-20T08:29:45.061Z,67.05
2022-11-20T08:34:47.890Z,66.52
2022-11-20T08:39:50.768Z,66.80
2022-11-20T08:44:53.425Z,66.83
2022-11-20T08:49:56.219Z,66.74
2022-11-20T08:54:58.920Z,66.59
2022-11-20T09:00:06.374Z,67.17
2022-11-20T09:05:09.520Z,66.67
2022-11-20T09:10:27.871Z,66.98
2022-11-20T09:15:30.538Z,67.19
2022-11-20T09:20:33.492Z,66.89
2022-11-20T09:25:36.159Z,67.10
2022-11-20T09:30:38.839Z,67.38
2022-11-20T09:35:41.618Z,67.85
2022-11-20T09:41:06.998Z,67.34
2022-11-20T09:46:09.656Z,67.24
2022-11-20T09:51:18.618Z,67.08
2022-11-20T09:56:22.901Z,67.45
2022-11-20T10:01:28.707Z,67.58
2022-11-20T10:06:39.034Z,67.50
2022-11-20T10:12:16.567Z,68.14
2022-11-20T10:17:52.159Z,68.43
2022-11-20T10:23:25.767Z,68.53
2022-11-20T10:28:57.207Z,68.85
2022-11-20T10:34:11.997Z,69.00
2022-11-20T10:39:37.082Z,69.41
2022-11-20T10:45:04.049Z,69.75
2022-11-20T10:50:15.393Z,70.21
2022-11-20T10:55:46.072Z,70.99
2022-11-20T11:00:48.797Z,71.26
2022-11-20T11:06:06.326Z,71.30
2022-11-20T11:11:23.740Z,71.32
2022-11-20T11:16:28.484Z,71.75
2022-11-20T11:21:31.472Z,71.63
2022-11-20T11:26:34.223Z,71.56
2022-11-20T11:31:37.093Z,71.33
2022-11-20T11:36:40.042Z,71.56
2022-11-20T11:41:42.977Z,71.46
2022-11-20T11:46:52.862Z,71.71
2022-11-20T11:52:16.108Z,71.52
2022-11-20T11:57:24.506Z,71.05
2022-11-20T12:02:39.039Z,71.76
2022-11-20T12:07:47.019Z,72.21
2022-11-20T12:12:58.921Z,71.95
2022-11-20T12:18:02.567Z,71.80
2022-11-20T12:23:33.152Z,72.15
2022-11-20T12:29:03.758Z,72.12
2022-11-20T12:34:28.229Z,71.85
2022-11-20T12:39:37.000Z,71.59
2022-11-20T12:45:13.319Z,71.60
2022-11-20T12:50:35.098Z,71.55
2022-11-20T12:56:03.870Z,71.50
2022-11-20T13:01:06.624Z,71.06
2022-11-20T13:06:18.970Z,70.93
2022-11-20T13:11:44.317Z,71.15
2022-11-20T13:16:50.117Z,70.65
2022-11-20T13:21:52.895Z,70.50
2022-11-20T13:27:13.970Z,70.48
2022-11-20T13:32:18.748Z,70.74
2022-11-20T13:37:38.936Z,70.50
2022-11-20T13:43:17.486Z,70.33
2022-11-20T13:48:22.757Z,70.46
2022-11-20T13:53:25.354Z,70.68
2022-11-20T13:58:43.342Z,70.50
2022-11-20T14:09:13.845Z,70.41
2022-11-20T14:14:27.749Z,69.99
2022-11-20T14:19:32.061Z,70.28
2022-11-20T14:24:34.962Z,70.72
2022-11-20T14:29:39.122Z,71.51
2022-11-20T14:34:43.656Z,71.67
2022-11-20T14:39:53.094Z,72.37
2022-11-20T14:45:02.486Z,72.47
2022-11-20T14:50:27.168Z,72.78
2022-11-20T14:55:33.315Z,73.57
2022-11-20T15:00:36.728Z,73.61
2022-11-20T15:05:47.814Z,74.19
2022-11-20T15:10:52.324Z,74.14
2022-11-20T15:15:56.607Z,74.48
2022-11-20T15:21:03.921Z,74.71
2022-11-20T15:26:07.622Z,74.82
2022-11-20T15:31:13.585Z,75.42
2022-11-20T15:36:16.519Z,74.62
2022-11-20T15:41:19.141Z,75.00
2022-11-20T15:46:28.728Z,75.60
2022-11-20T15:51:33.898Z,75.90
2022-11-20T15:56:36.548Z,76.57
2022-11-20T16:01:39.270Z,76.58
2022-11-20T16:06:42.351Z,77.23
2022-11-20T16:11:45.032Z,77.41
2022-11-20T16:16:47.805Z,78.02
2022-11-20T16:21:50.484Z,78.22
2022-11-20T16:26:54.985Z,79.16
2022-11-20T16:31:58.478Z,79.44
2022-11-20T16:37:01.129Z,79.73
2022-11-20T16:42:06.806Z,79.84
2022-11-20T16:47:09.429Z,80.28
2022-11-20T16:52:12.117Z,80.55
2022-11-20T16:57:14.786Z,80.72
2022-11-20T17:02:17.539Z,80.96
2022-11-20T17:07:20.421Z,81.12
2022-11-20T17:12:23.215Z,81.02
2022-11-20T17:17:25.928Z,81.18
2022-11-20T17:22:28.637Z,80.98
2022-11-20T17:27:31.334Z,81.14
2022-11-20T17:32:34.071Z,81.14
2022-11-20T17:37:36.765Z,81.75
2022-11-20T17:42:39.463Z,81.71
2022-11-20T17:47:42.517Z,81.68
2022-11-20T17:52:45.184Z,81.59
2022-11-20T17:57:53.874Z,81.66
2022-11-20T18:02:56.787Z,81.90
2022-11-20T18:07:59.383Z,82.18
2022-11-20T18:13:02.215Z,82.16
2022-11-20T18:18:05.110Z,82.02
2022-11-20T18:23:07.731Z,82.23
2022-11-20T18:28:10.352Z,82.06
2022-11-20T18:33:13.039Z,82.46
2022-11-20T18:38:16.007Z,82.64
2022-11-20T18:43:37.343Z,82.28
2022-11-20T18:48:40.099Z,82.26
2022-11-20T18:53:47.075Z,82.24
2022-11-20T18:58:50.331Z,82.39
2022-11-20T19:03:52.976Z,82.25
2022-11-20T19:08:55.632Z,82.77
2022-11-20T19:13:58.996Z,82.72
2022-11-20T19:19:03.599Z,83.40
2022-11-20T19:24:07.007Z,83.20
2022-11-20T19:29:13.430Z,82.96
2022-11-20T19:34:16.154Z,82.71
2022-11-20T19:39:18.914Z,83.22
2022-11-20T19:44:21.753Z,83.54
2022-11-20T19:49:24.644Z,83.77
2022-11-20T19:54:27.799Z,83.71
2022-11-20T19:59:30.536Z,83.48
2022-11-20T20:04:33.290Z,82.48
2022-11-20T20:09:36.066Z,81.80
2022-11-20T20:14:38.719Z,81.48
2022-11-20T20:19:41.396Z,81.23
2022-11-20T20:24:44.082Z,81.06
2022-11-20T20:29:46.953Z,80.74
2022-11-20T20:34:49.719Z,79.50
2022-11-20T20:39:52.378Z,78.55
2022-11-20T20:45:07.359Z,77.90
2022-11-20T20:50:11.778Z,77.19
2022-11-20T20:55:14.581Z,76.91
2022-11-20T21:00:17.445Z,76.83
2022-11-20T21:05:20.090Z,75.96
2022-11-20T21:10:23.934Z,75.49
2022-11-20T21:15:26.934Z,75.98
2022-11-20T21:20:48.163Z,75.75
2022-11-20T21:25:50.858Z,74.90
2022-11-20T21:30:53.649Z,74.32
2022-11-20T21:35:59.075Z,74.76
2022-11-20T21:41:02.016Z,74.44
2022-11-20T21:46:08.623Z,73.42
2022-11-20T21:51:16.160Z,74.05
2022-11-20T21:56:20.910Z,73.92
2022-11-20T22:01:27.788Z,74.28
2022-11-20T22:06:35.225Z,74.18
2022-11-20T22:11:37.874Z,74.63
2022-11-20T22:16:40.409Z,75.11
2022-11-20T22:21:43.401Z,74.49
2022-11-20T22:26:46.663Z,74.60
2022-11-20T22:31:52.397Z,74.93
2022-11-20T22:36:54.974Z,74.82
2022-11-20T22:41:57.478Z,74.97
2022-11-20T22:47:00.181Z,74.83
2022-11-20T22:52:03.007Z,75.22
2022-11-20T22:57:06.177Z,74.39
2022-11-20T23:02:08.791Z,74.88
2022-11-20T23:07:11.417Z,74.41
2022-11-20T23:12:14.414Z,74.90
2022-11-20T23:17:17.094Z,75.39
2022-11-20T23:22:19.743Z,75.48
2022-11-20T23:27:26.010Z,76.03
2022-11-20T23:32:31.045Z,76.18
2022-11-20T23:37:33.749Z,76.28
2022-11-20T23:42:36.514Z,76.12
2022-11-20T23:47:39.275Z,76.09
2022-11-20T23:52:42.004Z,76.45
2022-11-20T23:57:44.739Z,76.83
